Terminal Aerodrome Forecast
Issued by NWS

Home | Current Version | Previous Version | Text Only | Print | Product List | Glossary On
Versions: 1 2 3 4 5 6 7 8 9 10 11 12 13
000
FTUS44 KLZK 011100
TAFHOT
TAF
KHOT 011120Z 0112/0212 06003KT 5SM -RA BR SCT025 BKN040
     FM011300 VRB03KT 5SM -RA BR BKN010 OVC040
     FM011800 04002KT 5SM -RA BR BKN005 OVC010
     FM020600 07006KT 4SM -RA BR OVC005=

USA.gov is the U.S. government's official web portal to all federal, state and local government web resources and services.